Allock, Kentucky
Current Conditions -  °F | °C
As of 4:15 PM on Saturday 22 Nov 2014 (Local Time) from KI35 Reporting Station
Clear Clear  
Wind Chill: 59°   Ceiling: Unl
Heat Index: 59°   Visibility: 10mi
Dew Point: 23°   Wind: 0mph
Humidity: 25%   Direction: NA
Pressure: 30.24"   Gusts: NA
Location:  37.1842°N, 83.1053°W
Report Text: KI35 222115Z AUTO 00000KT 10SM CLR 15/M05 A3024 RMK AO1
Loading
Personal Weather Stations






























Interactive Weather Map New forecast layout! Learn more

10-Day Weather Forecast

Advertisements
Track Severe Weather on mobile